Time;durP1;ratioP1;P1;durP2;ratioP2;P2;SDS_P1;SDS_P2;PMS_P1;PMS_P2;Temp;Humidity;BMP_temperature;BMP_pressure;BME280_temperature;BME280_humidity;BME280_pressure;Samples;Min_cycle;Max_cycle;Signal;HPM_P1;HPM_P2
2022/11/05 00:10:46;;;;;;;9.10;2.45;;;7.40;99.90;;;;;;4939544;29;20051;-62
2022/11/05 00:18:41;;;;;;;5.05;2.17;;;7.40;99.90;;;;;;4957524;29;20044;-62
2022/11/05 00:25:12;;;;;;;9.50;2.28;;;7.30;99.90;;;;;;4957601;29;20047;-62
2022/11/05 00:26:36;;;;;;;6.93;1.95;;;7.30;99.90;;;;;;4957206;29;19923;-61
2022/11/05 00:29:02;;;;;;;4.63;2.05;;;7.40;99.90;;;;;;4940005;29;20035;-61
2022/11/05 00:31:27;;;;;;;7.43;2.10;;;7.30;99.90;;;;;;4957110;29;20094;-62
2022/11/05 00:33:53;;;;;;;5.13;1.95;;;7.50;99.90;;;;;;4957120;29;20114;-63
2022/11/05 00:36:18;;;;;;;6.00;2.17;;;7.40;99.90;;;;;;4957205;29;20375;-63
2022/11/05 00:38:44;;;;;;;5.93;1.60;;;7.40;99.90;;;;;;4956965;29;20039;-62
2022/11/05 00:41:09;;;;;;;7.18;2.13;;;7.40;99.90;;;;;;4956965;29;20070;-63
2022/11/05 00:46:19;;;;;;;6.22;2.20;;;7.30;99.90;;;;;;4957172;29;20469;-62
2022/11/05 00:51:29;;;;;;;7.80;2.28;;;7.40;99.90;;;;;;4957106;29;20043;-62
2022/11/05 00:53:54;;;;;;;7.50;2.45;;;7.30;99.90;;;;;;4956784;29;20406;-63
2022/11/05 00:56:20;;;;;;;6.90;1.98;;;7.30;99.90;;;;;;4956327;29;20486;-63
2022/11/05 00:58:45;;;;;;;6.28;1.60;;;6.90;99.90;;;;;;4956934;29;20542;-63
2022/11/05 01:01:11;;;;;;;2.13;1.77;;;6.80;99.90;;;;;;4939683;29;20148;-63
2022/11/05 01:03:38;;;;;;;3.38;1.58;;;6.50;99.90;;;;;;4956868;29;20081;-62
2022/11/05 01:06:13;;;;;;;2.08;1.90;;;6.50;99.90;;;;;;4956452;29;20499;-63
2022/11/05 01:08:40;;;;;;;3.50;1.77;;;6.10;99.90;;;;;;4939176;29;20049;-63
2022/11/05 01:11:35;;;;;;;3.70;1.90;;;6.40;99.90;;;;;;4956664;29;20082;-62
2022/11/05 01:14:04;;;;;;;3.53;1.90;;;6.40;99.90;;;;;;4939421;29;20494;-63
2022/11/05 01:16:30;;;;;;;4.85;1.52;;;6.50;99.90;;;;;;4956542;29;20090;-63
2022/11/05 01:18:56;;;;;;;6.93;2.05;;;6.60;99.90;;;;;;4956379;29;20047;-62
2022/11/05 01:21:22;;;;;;;4.68;1.60;;;6.60;99.90;;;;;;4954931;28;20027;-63
2022/11/05 01:23:47;;;;;;;2.67;1.63;;;6.60;99.90;;;;;;4939044;29;20564;-62
2022/11/05 01:26:13;;;;;;;5.95;2.25;;;6.50;99.90;;;;;;4939109;29;20054;-63
2022/11/05 01:28:38;;;;;;;4.82;1.85;;;6.60;99.90;;;;;;4956250;29;20043;-62
2022/11/05 01:31:04;;;;;;;5.35;1.65;;;6.60;99.90;;;;;;4955935;29;20613;-63
2022/11/05 01:33:30;;;;;;;3.63;2.00;;;6.50;99.90;;;;;;4938627;29;20505;-63
2022/11/05 01:35:55;;;;;;;6.03;1.90;;;6.60;99.90;;;;;;4938914;29;20102;-63
2022/11/05 01:38:21;;;;;;;4.35;1.95;;;6.70;99.90;;;;;;4955873;29;20086;-62
2022/11/05 01:40:47;;;;;;;6.68;1.90;;;;;;;;;;4938294;29;20047;-63
2022/11/05 01:43:21;;;;;;;5.97;1.33;;;6.70;99.90;;;;;;4938772;29;20069;-63
2022/11/05 01:45:54;;;;;;;8.80;2.05;;;6.60;99.90;;;;;;4938849;29;20050;-63
2022/11/05 01:48:25;;;;;;;4.93;1.50;;;6.90;99.90;;;;;;4938430;29;20046;-63
2022/11/05 01:51:10;;;;;;;3.40;1.67;;;6.70;99.90;;;;;;4938694;29;20057;-63
2022/11/05 01:53:42;;;;;;;4.57;2.10;;;6.60;99.90;;;;;;4955676;29;20039;-63
2022/11/05 01:56:16;;;;;;;3.80;1.77;;;6.30;99.90;;;;;;4955549;29;20047;-63
2022/11/05 01:58:47;;;;;;;3.65;1.38;;;;;;;;;;4955906;29;20127;-63
2022/11/05 02:01:13;;;;;;;2.97;1.45;;;6.50;99.90;;;;;;4955427;29;20047;-63
2022/11/05 02:03:39;;;;;;;5.20;2.28;;;6.50;99.90;;;;;;4955457;29;20035;-63
2022/11/05 02:06:08;;;;;;;2.58;1.60;;;;;;;;;;4938601;29;20134;-63
2022/11/05 02:09:04;;;;;;;3.33;2.10;;;6.30;99.90;;;;;;4927365;29;20450;-63
2022/11/05 02:11:30;;;;;;;5.68;1.83;;;6.40;99.90;;;;;;4955431;29;20062;-63
2022/11/05 02:13:56;;;;;;;13.80;3.00;;;6.50;99.90;;;;;;4955507;29;20486;-63
2022/11/05 02:16:36;;;;;;;7.68;2.30;;;6.70;99.90;;;;;;4955414;29;20052;-63
2022/11/05 02:19:36;;;;;;;5.47;2.03;;;6.60;99.90;;;;;;4955358;29;20043;-63
2022/11/05 02:22:46;;;;;;;6.90;2.22;;;6.50;99.90;;;;;;4954975;29;20038;-63
2022/11/05 02:25:43;;;;;;;6.63;2.28;;;6.60;99.90;;;;;;4927835;29;20410;-63
2022/11/05 02:28:30;;;;;;;3.10;1.90;;;6.80;99.90;;;;;;4954332;29;20074;-63
2022/11/05 02:30:59;;;;;;;5.72;2.17;;;6.70;99.90;;;;;;4948503;29;20541;-63
2022/11/05 02:33:55;;;;;;;5.40;2.17;;;6.80;99.90;;;;;;4954601;28;20094;-63
2022/11/05 02:36:49;;;;;;;6.82;2.28;;;6.60;99.90;;;;;;4937767;29;20098;-63
2022/11/05 02:39:24;;;;;;;3.20;2.00;;;;;;;;;;4955058;29;20090;-63
2022/11/05 02:42:36;;;;;;;8.82;2.38;;;6.60;99.90;;;;;;4955049;29;20042;-63
2022/11/05 02:45:28;;;;;;;8.30;2.55;;;6.70;99.90;;;;;;4932542;29;20058;-63
2022/11/05 02:48:24;;;;;;;4.38;1.80;;;6.70;99.90;;;;;;4937589;29;20055;-63
2022/11/05 02:50:50;;;;;;;;;;;6.60;99.90;;;;;;4938378;29;20516;-63
2022/11/05 02:53:42;;;;;;;4.25;2.00;;;6.70;99.90;;;;;;4954680;29;19918;-63
2022/11/05 02:56:22;;;;;;;4.35;1.75;;;6.60;99.90;;;;;;4937386;29;20071;-63
2022/11/05 02:58:48;;;;;;;3.58;2.00;;;6.60;99.90;;;;;;4942882;29;20074;-63
2022/11/05 03:01:13;;;;;;;6.80;2.20;;;6.70;99.90;;;;;;4955170;29;20085;-63
2022/11/05 03:03:42;;;;;;;4.45;1.95;;;;;;;;;;4937230;29;20482;-63
2022/11/05 03:06:46;;;;;;;7.93;2.15;;;6.70;99.90;;;;;;4937310;29;20047;-63
2022/11/05 03:09:36;;;;;;;4.43;2.28;;;6.70;99.90;;;;;;4880333;29;20119;-64
2022/11/05 03:12:20;;;;;;;5.90;2.03;;;6.90;99.90;;;;;;4954515;29;20046;-63
2022/11/05 03:15:25;;;;;;;5.72;2.00;;;6.70;99.90;;;;;;4954771;29;20039;-63
2022/11/05 03:18:24;;;;;;;8.20;2.67;;;6.60;99.90;;;;;;4944744;29;20050;-63
2022/11/05 03:20:51;;;;;;;9.23;2.80;;;6.60;99.90;;;;;;4941541;29;20170;-63
2022/11/05 03:23:42;;;;;;;4.18;2.33;;;6.60;99.90;;;;;;4954594;29;20520;-63
2022/11/05 03:26:17;;;;;;;6.15;2.85;;;6.60;99.90;;;;;;4954565;29;20086;-63
2022/11/05 03:28:55;;;;;;;5.97;3.72;;;6.70;99.90;;;;;;4954330;29;20071;-63
2022/11/05 03:31:23;;;;;;;5.47;3.00;;;;;;;;;;4954708;29;20036;-63
2022/11/05 03:33:52;;;;;;;10.00;3.83;;;6.60;99.90;;;;;;4954486;29;20051;-63
2022/11/05 03:36:32;;;;;;;9.90;3.80;;;6.60;99.90;;;;;;4937208;29;20167;-63
2022/11/05 03:39:03;;;;;;;12.20;4.13;;;6.70;99.90;;;;;;4954510;29;20051;-63
2022/11/05 03:41:30;;;;;;;9.65;4.15;;;6.60;99.90;;;;;;4937008;29;20043;-63
2022/11/05 03:43:59;;;;;;;10.25;4.00;;;6.70;99.90;;;;;;4954434;28;20051;-63
2022/11/05 03:46:36;;;;;;;11.32;4.15;;;6.70;99.90;;;;;;4958016;29;20422;-63
2022/11/05 03:49:05;;;;;;;9.43;4.60;;;6.70;99.90;;;;;;4940702;29;20047;-65
2022/11/05 03:51:42;;;;;;;11.02;4.43;;;6.90;99.90;;;;;;4940935;29;20039;-63
2022/11/05 03:54:09;;;;;;;10.00;5.25;;;;;;;;;;4957769;29;20406;-63
2022/11/05 03:56:37;;;;;;;7.75;4.00;;;6.70;99.90;;;;;;4940448;29;20074;-63
2022/11/05 03:59:04;;;;;;;5.93;4.60;;;6.70;99.90;;;;;;4957957;29;20039;-63
2022/11/05 04:01:31;;;;;;;11.00;4.75;;;6.70;99.90;;;;;;4957754;29;20039;-63
2022/11/05 04:03:56;;;;;;;8.20;4.53;;;6.50;99.90;;;;;;4940605;29;20035;-63
2022/11/05 04:14:34;;;;;;;9.25;4.07;;;6.30;99.90;;;;;;4957768;29;20402;-63
2022/11/05 04:17:06;;;;;;;6.47;3.92;;;6.40;99.90;;;;;;4939802;29;20089;-63
2022/11/05 04:25:10;;;;;;;8.38;4.18;;;6.40;99.90;;;;;;4957421;29;20075;-63
2022/11/05 04:27:35;;;;;;;9.10;4.43;;;6.20;99.90;;;;;;4940075;29;20133;-63
2022/11/05 04:30:17;;;;;;;10.73;4.70;;;;;;;;;;4957199;29;20121;-63
2022/11/05 04:32:59;;;;;;;7.07;3.95;;;6.20;99.90;;;;;;4957282;29;20110;-63
2022/11/05 04:35:27;;;;;;;9.60;4.28;;;6.40;99.90;;;;;;4957082;29;20067;-63
2022/11/05 04:37:53;;;;;;;8.75;4.28;;;6.30;99.90;;;;;;4956861;29;20039;-63
2022/11/05 04:40:18;;;;;;;11.38;5.22;;;6.20;99.90;;;;;;4957237;29;20457;-63
2022/11/05 04:42:44;;;;;;;4.78;3.67;;;6.10;99.90;;;;;;4956721;29;20393;-63
2022/11/05 04:45:09;;;;;;;8.80;4.68;;;6.10;99.90;;;;;;4939856;29;20039;-63
2022/11/05 04:47:35;;;;;;;6.25;4.00;;;6.10;99.90;;;;;;4957113;29;20094;-63
2022/11/05 04:50:00;;;;;;;6.53;4.13;;;6.00;99.90;;;;;;4956943;29;20047;-63
2022/11/05 04:52:26;;;;;;;6.03;4.03;;;;;;;;;;4956763;29;20035;-63
2022/11/05 04:54:52;;;;;;;7.72;4.30;;;5.80;99.90;;;;;;4956485;28;20040;-63
2022/11/05 04:57:17;;;;;;;8.80;4.07;;;5.90;99.90;;;;;;4956482;29;20047;-63
2022/11/05 04:59:43;;;;;;;9.82;4.72;;;5.90;99.90;;;;;;4956819;29;20074;-63
2022/11/05 05:02:08;;;;;;;5.07;3.60;;;5.90;99.90;;;;;;4939796;29;20035;-63
2022/11/05 05:04:34;;;;;;;10.32;4.63;;;5.80;99.90;;;;;;4939482;29;20043;-63
2022/11/05 05:07:00;;;;;;;6.55;4.03;;;;;;;;;;4939277;29;20054;-63
2022/11/05 05:09:25;;;;;;;9.10;4.45;;;6.00;99.90;;;;;;4956752;29;20054;-63
2022/11/05 05:11:51;;;;;;;8.88;4.28;;;6.00;99.90;;;;;;4956628;29;20047;-63
2022/11/05 05:14:16;;;;;;;7.95;4.32;;;5.90;99.90;;;;;;4939289;29;20125;-63
2022/11/05 05:16:42;;;;;;;8.93;4.38;;;;;;;;;;4956217;29;20078;-63
2022/11/05 05:19:08;;;;;;;8.55;4.38;;;6.00;99.90;;;;;;4939459;29;20043;-63
2022/11/05 05:21:41;;;;;;;6.90;4.10;;;;;;;;;;4956427;29;20118;-62
2022/11/05 05:24:15;;;;;;;10.00;4.00;;;6.10;99.90;;;;;;4956495;29;20054;-63
2022/11/05 05:26:43;;;;;;;6.22;4.32;;;6.10;99.90;;;;;;4939420;29;20050;-63
2022/11/05 05:29:10;;;;;;;8.82;4.00;;;6.10;99.90;;;;;;4956496;29;20035;-63
2022/11/05 05:31:36;;;;;;;6.47;3.78;;;6.10;99.90;;;;;;4938927;29;20114;-63
2022/11/05 05:34:02;;;;;;;6.93;3.50;;;6.00;99.90;;;;;;4938867;29;20118;-63
2022/11/05 05:36:27;;;;;;;10.00;3.95;;;6.00;99.90;;;;;;4955801;29;20490;-63
2022/11/05 05:38:53;;;;;;;7.15;3.47;;;6.10;99.90;;;;;;4956187;29;20043;-63
2022/11/05 05:41:19;;;;;;;8.35;4.00;;;5.90;99.90;;;;;;4938815;29;20494;-63
2022/11/05 05:43:45;;;;;;;7.53;3.65;;;6.00;99.90;;;;;;4955971;29;20035;-63
2022/11/05 05:46:12;;;;;;;8.82;3.88;;;;;;;;;;4956099;29;20508;-63
2022/11/05 05:48:38;;;;;;;4.88;3.78;;;6.10;99.90;;;;;;4938761;29;20085;-63
2022/11/05 05:51:06;;;;;;;5.78;3.50;;;6.10;99.90;;;;;;4955885;29;20095;-63
2022/11/05 05:53:33;;;;;;;10.48;4.38;;;6.10;99.90;;;;;;4955972;29;20398;-63
2022/11/05 05:55:59;;;;;;;6.95;4.60;;;6.20;99.90;;;;;;4955592;29;20417;-63
2022/11/05 05:58:26;;;;;;;6.25;3.95;;;6.20;99.90;;;;;;4955577;29;20051;-63
2022/11/05 06:00:58;;;;;;;7.93;4.95;;;6.00;99.90;;;;;;4955718;29;20126;-63
2022/11/05 06:03:24;;;;;;;8.57;3.90;;;6.20;99.90;;;;;;4955442;29;20055;-63
2022/11/05 06:05:49;;;;;;;5.32;4.22;;;6.00;99.90;;;;;;4955356;29;20047;-63
2022/11/05 06:08:15;;;;;;;7.90;3.83;;;6.20;99.90;;;;;;4954724;28;20047;-63
2022/11/05 06:10:40;;;;;;;6.68;3.80;;;6.10;99.90;;;;;;4955724;29;20401;-63
2022/11/05 06:13:06;;;;;;;6.28;3.88;;;6.10;99.90;;;;;;4955370;29;20553;-63
2022/11/05 06:15:32;;;;;;;5.53;3.65;;;;;;;;;;4955593;29;20082;-63
2022/11/05 06:17:57;;;;;;;11.05;3.90;;;6.10;99.90;;;;;;4955206;29;20564;-63
2022/11/05 06:20:23;;;;;;;5.00;4.00;;;6.00;99.90;;;;;;4937848;29;20155;-63
2022/11/05 06:22:56;;;;;;;13.00;5.00;;;5.80;99.90;;;;;;4955423;29;20118;-63
2022/11/05 06:25:21;;;;;;;8.95;4.72;;;5.90;99.90;;;;;;4955350;29;20045;-63
2022/11/05 06:27:47;;;;;;;7.00;5.03;;;6.00;99.90;;;;;;4955166;29;20409;-63
2022/11/05 06:30:13;;;;;;;8.90;5.10;;;6.00;99.90;;;;;;4955272;29;20043;-63
2022/11/05 06:32:39;;;;;;;8.98;5.57;;;;;;;;;;4955376;29;20045;-62
2022/11/05 06:35:04;;;;;;;10.10;5.75;;;6.20;99.90;;;;;;4954709;29;20134;-63
2022/11/05 06:37:32;;;;;;;9.23;6.15;;;;;;;;;;4955154;29;20050;-62
2022/11/05 06:39:58;;;;;;;7.80;5.88;;;6.40;99.90;;;;;;4955255;29;20082;-63
2022/11/05 06:42:24;;;;;;;10.25;6.93;;;6.40;99.90;;;;;;4955131;29;20563;-63
2022/11/05 06:44:51;;;;;;;11.50;6.18;;;6.50;99.90;;;;;;4937930;29;20043;-63
2022/11/05 06:47:17;;;;;;;14.93;7.07;;;;;;;;;;4954526;29;20410;-62
2022/11/05 06:49:43;;;;;;;10.85;6.30;;;6.60;99.90;;;;;;4954684;29;20054;-63
2022/11/05 06:52:09;;;;;;;12.10;5.65;;;;;;;;;;4955049;29;20051;-63
2022/11/05 06:54:35;;;;;;;11.95;6.15;;;6.50;99.90;;;;;;4937452;29;20118;-63
2022/11/05 06:57:00;;;;;;;9.38;5.78;;;6.70;99.90;;;;;;4954636;29;20055;-63
2022/11/05 06:59:26;;;;;;;11.23;5.70;;;6.60;99.90;;;;;;4954611;29;20074;-63
2022/11/05 07:01:52;;;;;;;9.80;5.50;;;6.70;99.90;;;;;;4937946;29;20110;-63
2022/11/05 07:04:17;;;;;;;10.02;6.18;;;6.70;99.90;;;;;;4937281;29;20394;-63
2022/11/05 07:06:43;;;;;;;9.82;5.57;;;6.70;99.90;;;;;;4954785;29;20363;-63
2022/11/05 07:09:08;;;;;;;9.23;4.53;;;6.80;99.90;;;;;;4921611;29;20498;-63
2022/11/05 07:11:34;;;;;;;9.65;5.03;;;6.90;99.90;;;;;;4954438;29;20058;-63
2022/11/05 07:14:00;;;;;;;9.07;5.13;;;6.90;99.90;;;;;;4954617;29;20062;-63
2022/11/05 07:16:25;;;;;;;12.63;4.93;;;6.90;99.90;;;;;;4937375;29;20036;-63
2022/11/05 07:18:51;;;;;;;12.45;5.75;;;;;;;;;;4953151;28;20105;-65
2022/11/05 07:21:18;;;;;;;7.93;4.63;;;7.10;99.90;;;;;;4957152;28;20086;-65
2022/11/05 07:23:44;;;;;;;6.78;4.32;;;7.20;99.90;;;;;;4940858;29;20078;-65
2022/11/05 07:26:09;;;;;;;11.80;4.93;;;7.20;99.90;;;;;;4941129;29;20071;-65
2022/11/05 07:28:35;;;;;;;8.38;4.07;;;7.40;99.90;;;;;;4940959;29;20039;-65
2022/11/05 07:31:01;;;;;;;8.45;4.47;;;7.60;99.90;;;;;;4958887;28;20098;-64
2022/11/05 07:33:26;;;;;;;6.85;5.30;;;7.40;99.90;;;;;;4940423;29;20051;-64
2022/11/05 07:35:55;;;;;;;9.38;4.00;;;7.50;99.90;;;;;;4958288;29;20039;-65
2022/11/05 07:38:21;;;;;;;6.38;3.42;;;7.70;99.90;;;;;;4924175;29;20039;-64
2022/11/05 07:40:46;;;;;;;7.38;3.83;;;7.80;99.90;;;;;;4957310;28;20485;-64
2022/11/05 07:43:12;;;;;;;5.63;3.45;;;7.90;99.90;;;;;;4957737;28;20489;-64
2022/11/05 07:45:37;;;;;;;9.85;3.97;;;8.00;99.90;;;;;;4957350;28;20482;-65
2022/11/05 07:48:04;;;;;;;6.47;3.78;;;;;;;;;;4957455;28;20586;-65
2022/11/05 07:50:31;;;;;;;7.93;3.60;;;8.30;99.90;;;;;;4956453;28;20450;-66
2022/11/05 07:53:06;;;;;;;11.02;3.65;;;8.40;99.90;;;;;;4957670;28;20050;-65
2022/11/05 07:55:32;;;;;;;6.53;3.28;;;;;;;;;;4957325;28;20130;-66
2022/11/05 07:57:58;;;;;;;6.80;3.63;;;8.70;99.90;;;;;;4940109;28;20082;-64
2022/11/05 08:00:25;;;;;;;9.38;3.70;;;;;;;;;;4957245;28;20077;-65
2022/11/05 08:03:10;;;;;;;7.82;3.50;;;9.20;99.90;;;;;;4957494;29;20051;-65
2022/11/05 08:05:38;;;;;;;6.22;3.45;;;9.30;99.90;;;;;;4940295;29;20094;-65
2022/11/05 08:08:08;;;;;;;5.15;3.58;;;9.60;99.90;;;;;;4940218;29;20039;-64
2022/11/05 08:10:35;;;;;;;7.57;3.30;;;10.00;99.90;;;;;;4957507;29;20391;-65
2022/11/05 08:13:01;;;;;;;6.00;3.53;;;;;;;;;;4957713;29;20038;-65
2022/11/05 08:15:26;;;;;;;10.15;3.85;;;10.10;99.90;;;;;;4957304;28;20126;-65
2022/11/05 08:18:03;;;;;;;4.80;2.83;;;10.20;99.90;;;;;;4958209;29;20118;-66
2022/11/05 08:20:29;;;;;;;4.05;2.55;;;10.40;99.90;;;;;;4953268;28;20031;-66
2022/11/05 08:22:55;;;;;;;4.47;2.70;;;10.40;99.90;;;;;;4939261;29;20498;-65
2022/11/05 08:25:22;;;;;;;7.88;3.50;;;10.40;99.90;;;;;;4956206;29;20046;-64
2022/11/05 08:28:03;;;;;;;5.20;3.00;;;10.60;99.90;;;;;;4939452;29;20494;-65
2022/11/05 08:30:30;;;;;;;5.75;2.88;;;10.40;99.90;;;;;;4939994;28;20090;-64
2022/11/05 08:33:08;;;;;;;4.70;3.00;;;10.70;99.90;;;;;;4939328;29;20082;-65
2022/11/05 08:35:35;;;;;;;5.18;2.53;;;10.70;99.90;;;;;;4938657;29;20066;-65
2022/11/05 08:38:02;;;;;;;7.68;2.83;;;11.00;99.90;;;;;;4955423;29;20123;-65
2022/11/05 08:40:31;;;;;;;7.60;2.75;;;10.90;99.90;;;;;;4938517;28;20485;-64
2022/11/05 08:42:57;;;;;;;4.13;2.80;;;11.00;99.90;;;;;;4953976;29;20038;-64
2022/11/05 08:45:24;;;;;;;9.38;2.72;;;11.20;99.90;;;;;;4956083;28;20042;-64
2022/11/05 08:47:50;;;;;;;4.90;2.75;;;;;;;;;;4938283;29;20051;-64
2022/11/05 08:50:16;;;;;;;9.23;3.10;;;11.50;99.90;;;;;;4956316;29;20050;-64
2022/11/05 08:52:42;;;;;;;3.25;2.40;;;11.50;99.90;;;;;;4956480;29;20047;-64
2022/11/05 08:55:08;;;;;;;5.40;3.00;;;11.50;99.90;;;;;;4939309;29;20035;-64
2022/11/05 08:57:33;;;;;;;5.13;2.60;;;11.90;99.90;;;;;;4939300;29;20082;-64
2022/11/05 08:59:59;;;;;;;5.38;2.20;;;11.90;99.90;;;;;;4956169;28;20110;-65
2022/11/05 09:02:25;;;;;;;6.50;2.33;;;;;;;;;;4938527;29;20054;-65
2022/11/05 09:04:50;;;;;;;7.40;2.72;;;13.10;99.90;;;;;;4953793;29;20043;-64
2022/11/05 09:07:16;;;;;;;4.20;2.10;;;13.20;99.90;;;;;;4938989;29;20494;-63
2022/11/05 09:09:41;;;;;;;5.95;2.47;;;14.20;99.90;;;;;;4939216;29;20047;-63
2022/11/05 09:12:07;;;;;;;4.38;1.80;;;13.90;99.90;;;;;;4956151;29;20039;-63
2022/11/05 09:14:33;;;;;;;3.95;2.00;;;;;;;;;;4956329;28;20094;-63
2022/11/05 09:16:59;;;;;;;5.60;1.90;;;13.60;99.90;;;;;;4955561;29;20047;-63
2022/11/05 09:19:24;;;;;;;5.53;2.05;;;13.40;99.90;;;;;;4938851;29;20042;-63
2022/11/05 09:21:50;;;;;;;3.67;2.08;;;13.50;99.90;;;;;;4938871;29;20047;-63
2022/11/05 09:24:16;;;;;;;6.45;1.88;;;;;;;;;;4938604;29;20043;-63
2022/11/05 09:26:41;;;;;;;3.88;1.95;;;14.60;99.90;;;;;;4938750;29;20557;-63
2022/11/05 09:29:07;;;;;;;5.40;1.92;;;14.80;99.90;;;;;;4956082;29;20115;-64
2022/11/05 09:31:32;;;;;;;5.50;2.20;;;17.70;99.90;;;;;;4956125;29;20494;-63
2022/11/05 09:33:58;;;;;;;3.13;1.67;;;18.20;99.90;;;;;;4955779;28;20481;-63
2022/11/05 09:36:23;;;;;;;3.30;1.38;;;16.90;99.90;;;;;;4955815;29;20485;-63
2022/11/05 09:38:49;;;;;;;3.30;1.67;;;15.80;99.90;;;;;;4955765;29;20043;-63
2022/11/05 09:41:14;;;;;;;6.70;1.85;;;15.30;99.90;;;;;;4955772;28;20039;-63
2022/11/05 09:44:04;;;;;;;4.38;1.90;;;14.70;99.90;;;;;;4937740;29;20128;-63
2022/11/05 09:46:44;;;;;;;3.75;1.70;;;14.20;99.90;;;;;;4926190;29;20126;-63
2022/11/05 09:49:37;;;;;;;3.47;1.95;;;13.50;99.90;;;;;;4938615;29;20074;-62
2022/11/05 09:52:03;;;;;;;3.15;1.55;;;13.50;99.90;;;;;;4932046;29;20063;-63
2022/11/05 09:54:33;;;;;;;5.72;1.95;;;12.90;99.90;;;;;;4938250;29;20140;-63
2022/11/05 09:57:01;;;;;;;8.85;2.80;;;12.70;99.90;;;;;;4938344;29;20083;-63
2022/11/05 09:59:43;;;;;;;5.40;1.60;;;12.60;99.90;;;;;;4938816;29;20078;-63
2022/11/05 10:02:17;;;;;;;4.15;2.05;;;12.50;99.90;;;;;;4955653;29;20066;-63
2022/11/05 10:04:59;;;;;;;4.65;2.05;;;12.40;99.90;;;;;;5076091;28;20386;-62
2022/11/05 10:07:28;;;;;;;3.97;1.75;;;12.40;99.90;;;;;;5068994;28;20104;-62
2022/11/05 10:10:04;;;;;;;4.85;1.67;;;12.30;99.90;;;;;;5053032;28;20037;-62
2022/11/05 10:12:51;;;;;;;6.70;1.90;;;12.40;99.90;;;;;;5068822;28;20055;-62
2022/11/05 10:15:48;;;;;;;3.25;1.60;;;12.20;99.90;;;;;;5055998;28;20029;-62
2022/11/05 10:18:24;;;;;;;3.17;1.92;;;12.40;99.90;;;;;;5057163;28;20470;-62
2022/11/05 10:20:50;;;;;;;3.50;1.50;;;12.50;99.90;;;;;;5057751;28;20044;-62
2022/11/05 10:23:18;;;;;;;4.90;2.05;;;12.60;99.90;;;;;;5054510;28;20045;-62
2022/11/05 10:26:10;;;;;;;2.78;1.52;;;12.50;99.90;;;;;;5069974;28;20391;-62
2022/11/05 10:28:36;;;;;;;7.47;1.75;;;12.50;99.90;;;;;;5061867;28;20059;-62
2022/11/05 10:31:22;;;;;;;6.00;2.30;;;12.50;99.90;;;;;;5068355;28;20040;-64
2022/11/05 10:33:54;;;;;;;5.95;1.80;;;12.50;99.90;;;;;;5050269;28;20171;-64
2022/11/05 10:36:24;;;;;;;3.47;1.70;;;12.50;99.90;;;;;;5059423;28;20091;-64
2022/11/05 10:38:52;;;;;;;7.60;1.60;;;12.50;99.90;;;;;;5068586;28;20049;-64
2022/11/05 10:41:17;;;;;;;4.03;1.90;;;12.30;99.90;;;;;;5051234;28;20029;-64
2022/11/05 10:44:22;;;;;;;5.30;1.77;;;12.40;99.90;;;;;;5059720;28;20041;-64
2022/11/05 10:47:00;;;;;;;6.05;1.60;;;12.50;99.90;;;;;;5042691;28;20112;-64
2022/11/05 10:49:39;;;;;;;4.50;1.92;;;12.60;99.90;;;;;;5034047;28;20064;-64
2022/11/05 10:52:23;;;;;;;4.38;2.03;;;12.70;99.90;;;;;;5058743;28;20045;-64
2022/11/05 10:54:53;;;;;;;5.40;2.08;;;12.50;99.90;;;;;;5049346;28;20395;-64
2022/11/05 10:57:32;;;;;;;7.35;1.98;;;12.60;99.90;;;;;;5047962;28;20555;-64
2022/11/05 11:00:15;;;;;;;6.70;1.60;;;12.80;99.90;;;;;;5048331;28;20574;-64
2022/11/05 11:02:42;;;;;;;3.83;1.30;;;12.80;99.90;;;;;;5048828;28;20033;-64
2022/11/05 11:05:10;;;;;;;5.35;1.60;;;12.90;99.90;;;;;;5067524;28;20122;-64
2022/11/05 11:07:35;;;;;;;5.30;1.80;;;13.00;99.90;;;;;;5068713;28;20045;-64
2022/11/05 11:10:02;;;;;;;3.58;1.50;;;12.90;99.90;;;;;;5061668;28;20041;-64
2022/11/05 11:12:37;;;;;;;2.65;1.30;;;12.70;99.90;;;;;;5047966;28;20112;-64
2022/11/05 11:15:02;;;;;;;4.03;1.73;;;12.70;99.90;;;;;;5058173;28;20037;-64
2022/11/05 11:17:31;;;;;;;4.55;1.33;;;12.50;99.90;;;;;;5045054;28;20051;-64
2022/11/05 11:20:20;;;;;;;4.78;1.50;;;12.50;99.90;;;;;;5049520;28;20072;-64
2022/11/05 11:23:02;;;;;;;2.78;1.42;;;12.40;99.90;;;;;;5045234;28;20048;-64
2022/11/05 11:25:41;;;;;;;3.75;1.20;;;12.30;99.90;;;;;;5053936;28;20044;-64
2022/11/05 11:28:16;;;;;;;2.80;1.35;;;12.10;99.90;;;;;;5041084;28;20092;-64
2022/11/05 11:31:05;;;;;;;2.88;1.40;;;12.10;99.90;;;;;;5040698;28;20501;-64
2022/11/05 11:33:32;;;;;;;4.32;1.33;;;12.20;99.90;;;;;;5039930;28;20052;-64
2022/11/05 11:35:58;;;;;;;5.00;1.23;;;12.50;99.90;;;;;;5046144;28;20064;-64
2022/11/05 11:38:28;;;;;;;10.15;1.65;;;12.10;99.90;;;;;;5035481;28;20468;-64
2022/11/05 11:41:21;;;;;;;7.05;1.65;;;12.10;99.90;;;;;;5051648;28;20049;-64
2022/11/05 11:43:47;;;;;;;3.22;1.70;;;12.20;99.90;;;;;;5043184;28;20120;-64
2022/11/05 11:46:19;;;;;;;3.92;1.67;;;11.90;99.90;;;;;;5039342;28;20118;-64
2022/11/05 11:48:47;;;;;;;2.53;1.90;;;11.90;99.90;;;;;;5054897;28;20041;-64
2022/11/05 11:51:35;;;;;;;8.18;2.13;;;12.00;99.90;;;;;;5050433;28;20037;-64
2022/11/05 11:54:02;;;;;;;6.45;1.92;;;11.90;99.90;;;;;;5033391;28;20041;-64
2022/11/05 11:56:29;;;;;;;4.22;2.00;;;11.80;99.90;;;;;;5051981;28;20041;-64
2022/11/05 11:59:08;;;;;;;3.25;2.00;;;11.70;99.90;;;;;;5053718;28;20395;-64
2022/11/05 12:01:48;;;;;;;4.97;1.98;;;11.80;99.90;;;;;;5050205;28;20041;-64
2022/11/05 12:04:21;;;;;;;5.78;2.03;;;11.50;99.90;;;;;;5046987;28;20415;-64
2022/11/05 12:07:09;;;;;;;5.35;1.70;;;11.60;99.90;;;;;;5039509;28;20588;-64
2022/11/05 12:09:46;;;;;;;5.32;1.63;;;11.60;99.90;;;;;;5040621;28;20057;-64
2022/11/05 12:12:14;;;;;;;5.55;1.83;;;11.50;99.90;;;;;;5046639;28;20077;-64
2022/11/05 12:15:22;;;;;;;8.00;1.95;;;11.60;99.90;;;;;;5048953;28;20431;-64
2022/11/05 12:18:06;;;;;;;4.15;2.28;;;11.60;99.90;;;;;;5053248;28;20045;-64
2022/11/05 12:20:46;;;;;;;3.45;1.75;;;11.70;99.90;;;;;;5041156;28;20041;-64
2022/11/05 12:23:35;;;;;;;2.70;1.40;;;11.70;99.90;;;;;;5038504;28;20442;-64
2022/11/05 12:26:04;;;;;;;5.30;2.25;;;11.60;99.90;;;;;;5032407;28;20045;-64
2022/11/05 12:28:57;;;;;;;10.98;2.50;;;11.50;99.90;;;;;;5034870;28;20073;-64
2022/11/05 12:31:42;;;;;;;7.43;2.30;;;11.60;99.90;;;;;;5052896;28;20045;-64
2022/11/05 12:34:32;;;;;;;5.55;2.45;;;11.70;99.90;;;;;;5046289;28;20048;-64
2022/11/05 12:37:01;;;;;;;5.97;2.50;;;11.60;99.90;;;;;;5034108;28;20045;-64
2022/11/05 12:39:43;;;;;;;5.25;1.92;;;11.60;99.90;;;;;;5037040;28;20086;-64
2022/11/05 12:42:24;;;;;;;7.88;2.83;;;11.50;99.90;;;;;;5052732;28;20051;-63
2022/11/05 12:44:52;;;;;;;5.63;2.63;;;11.80;99.90;;;;;;5039277;28;20049;-64
2022/11/05 12:47:56;;;;;;;3.72;2.60;;;11.70;99.90;;;;;;5053958;28;20120;-64
2022/11/05 12:50:34;;;;;;;5.47;2.95;;;12.00;99.90;;;;;;5033949;28;20041;-64
2022/11/05 12:53:31;;;;;;;7.55;2.45;;;11.80;99.90;;;;;;5036602;28;20049;-64
2022/11/05 12:56:17;;;;;;;7.45;2.42;;;11.90;99.90;;;;;;5053587;28;20045;-64
2022/11/05 12:58:44;;;;;;;;;;;11.90;99.90;;;;;;5045366;28;20403;-64
2022/11/05 13:01:30;;;;;;;6.43;3.08;;;12.00;99.90;;;;;;5033589;28;20011;-64
2022/11/05 13:03:59;;;;;;;7.90;2.88;;;12.00;99.90;;;;;;5025431;28;20049;-64
2022/11/05 13:06:34;;;;;;;6.32;3.40;;;12.00;99.90;;;;;;5036034;28;20120;-64
2022/11/05 13:09:12;;;;;;;6.85;3.42;;;12.00;99.90;;;;;;5039908;28;20037;-64
2022/11/05 13:11:50;;;;;;;5.97;3.30;;;12.10;99.90;;;;;;5050733;28;20033;-64
2022/11/05 13:14:21;;;;;;;10.73;4.38;;;12.00;99.90;;;;;;5042529;28;20095;-64
2022/11/05 13:16:51;;;;;;;9.90;3.50;;;12.20;99.90;;;;;;5047622;28;20037;-64
2022/11/05 13:19:27;;;;;;;7.35;3.60;;;11.90;99.90;;;;;;5033427;28;20447;-63
2022/11/05 13:22:18;;;;;;;7.18;3.28;;;12.00;99.90;;;;;;5036998;28;20498;-63
2022/11/05 13:24:55;;;;;;;6.63;3.72;;;12.00;99.90;;;;;;5045592;28;20056;-64
2022/11/05 13:27:37;;;;;;;5.88;3.20;;;12.00;99.90;;;;;;5038832;28;20053;-64
2022/11/05 13:30:06;;;;;;;10.38;3.63;;;12.10;99.90;;;;;;5038346;28;20052;-64
2022/11/05 13:32:38;;;;;;;10.07;3.72;;;12.10;99.90;;;;;;5039252;28;20044;-64
2022/11/05 13:35:07;;;;;;;5.55;3.40;;;12.10;99.90;;;;;;5038465;28;20048;-64
2022/11/05 13:41:04;;;;;;;10.85;3.78;;;12.00;99.90;;;;;;5033151;28;20079;-64
2022/11/05 13:43:54;;;;;;;9.27;4.28;;;11.80;99.90;;;;;;5036347;28;20056;-64
2022/11/05 13:46:36;;;;;;;10.98;4.53;;;11.90;99.90;;;;;;5032774;28;20077;-64
2022/11/05 13:49:32;;;;;;;7.25;3.42;;;11.90;99.90;;;;;;5033055;28;20083;-64
2022/11/05 13:52:10;;;;;;;9.00;3.33;;;11.80;99.90;;;;;;5042436;28;20073;-64
2022/11/05 13:54:50;;;;;;;8.55;3.63;;;11.80;99.90;;;;;;5035603;28;20496;-64
2022/11/05 13:57:35;;;;;;;8.00;2.95;;;;;;;;;;5044016;28;20040;-64
2022/11/05 14:00:17;;;;;;;6.85;4.03;;;11.90;99.90;;;;;;5047023;28;20419;-64
2022/11/05 14:02:58;;;;;;;9.35;3.78;;;11.90;99.90;;;;;;5045288;28;20041;-64
2022/11/05 14:05:29;;;;;;;6.28;2.83;;;11.70;99.90;;;;;;5039643;28;20041;-64
2022/11/05 14:07:57;;;;;;;8.32;3.28;;;11.60;99.90;;;;;;5039987;28;20372;-64